Time;durP1;ratioP1;P1;durP2;ratioP2;P2;SDS_P1;SDS_P2;PMS_P1;PMS_P2;Temp;Humidity;BMP_temperature;BMP_pressure;BME280_temperature;BME280_humidity;BME280_pressure;Samples;Min_cycle;Max_cycle;Signal;HPM_P1;HPM_P2
2022/06/22 00:01:09;;;;;;;;;7.50;7.50;;;;;22.34;47.33;100898.03;2377376;28;46383;-92
2022/06/22 00:02:27;;;;;;;;;11.00;9.00;;;;;22.32;47.48;100903.50;2379704;28;45236;-95
2022/06/22 00:03:41;;;;;;;;;11.00;10.00;;;;;22.32;47.08;100908.84;2384286;28;45656;-94
2022/06/22 00:05:03;;;;;;;;;8.25;8.00;;;;;22.32;47.00;100906.16;2394115;28;45235;-95
2022/06/22 00:06:28;;;;;;;;;8.50;8.00;;;;;22.32;47.55;100902.66;2395053;28;47505;-91
2022/06/22 00:07:48;;;;;;;;;11.00;10.00;;;;;22.30;47.41;100891.25;2382366;28;44855;-92
2022/06/22 00:09:01;;;;;;;;;9.25;8.25;;;;;22.29;47.54;100889.53;2383816;28;46877;-92
2022/06/22 00:10:30;;;;;;;;;8.50;8.50;;;;;22.29;47.35;100893.06;2383515;28;45268;-92
2022/06/22 00:11:44;;;;;;;;;9.75;9.50;;;;;22.26;47.12;100888.81;2391994;28;45656;-92
2022/06/22 00:12:57;;;;;;;;;9.75;9.00;;;;;22.25;47.65;100896.94;2397414;28;45189;-91
2022/06/22 00:14:17;;;;;;;;;13.00;11.00;;;;;22.25;47.57;100891.59;2390195;28;45428;-91
2022/06/22 00:15:35;;;;;;;;;11.25;11.25;;;;;22.21;47.99;100887.47;2393212;28;45326;-90
2022/06/22 00:16:53;;;;;;;;;10.75;9.50;;;;;22.15;47.98;100891.47;2389595;28;45660;-92
2022/06/22 00:18:31;;;;;;;;;9.25;9.25;;;;;22.10;48.40;100885.66;2389951;28;45207;-91
2022/06/22 00:19:43;;;;;;;;;11.25;10.00;;;;;22.09;47.55;100882.13;2382278;28;46397;-92
2022/06/22 00:20:57;;;;;;;;;9.75;8.00;;;;;22.07;48.19;100877.88;2387784;28;45364;-92
2022/06/22 00:22:24;;;;;;;;;11.00;11.00;;;;;22.05;48.21;100871.81;2399228;28;48321;-91
2022/06/22 00:23:39;;;;;;;;;13.25;11.25;;;;;22.07;47.96;100875.19;2392953;28;45326;-91
2022/06/22 00:24:59;;;;;;;;;10.75;9.75;;;;;22.03;47.81;100864.72;2378269;28;47202;-92
2022/06/22 00:26:18;;;;;;;;;11.00;10.50;;;;;22.02;48.13;100868.41;2384387;28;45247;-90
2022/06/22 00:27:35;;;;;;;;;10.25;10.25;;;;;22.00;47.94;100864.97;2383178;28;48288;-91
2022/06/22 00:28:58;;;;;;;;;11.25;9.75;;;;;21.98;47.95;100869.59;2383540;28;45195;-89
2022/06/22 00:30:29;;;;;;;;;10.25;9.00;;;;;21.98;48.33;100869.59;2383264;28;46942;-89
2022/06/22 00:31:43;;;;;;;;;10.25;9.50;;;;;21.99;48.59;100868.63;2383523;28;44660;-90
2022/06/22 00:33:20;;;;;;;;;11.25;10.25;;;;;21.99;48.55;100868.63;2391635;28;47349;-88
2022/06/22 00:34:34;;;;;;;;;11.00;11.00;;;;;21.96;48.09;100860.00;2384513;28;45354;-90
2022/06/22 00:35:47;;;;;;;;;10.00;9.50;;;;;21.95;48.27;100866.34;2392439;28;48106;-91
2022/06/22 00:37:12;;;;;;;;;12.50;11.50;;;;;21.92;47.98;100862.06;2389606;28;45401;-90
2022/06/22 00:38:26;;;;;;;;;11.75;10.25;;;;;21.89;48.65;100859.63;2384866;28;45457;-90
2022/06/22 00:39:43;;;;;;;;;12.25;11.25;;;;;21.86;48.87;100857.16;2402160;28;45264;-90
2022/06/22 00:41:02;;;;;;;;;10.50;10.00;;;;;21.84;48.49;100865.31;2389995;28;47314;-88
2022/06/22 00:42:37;;;;;;;;;13.50;11.00;;;;;21.82;48.73;100867.28;2383264;28;44695;-90
2022/06/22 00:43:48;;;;;;;;;13.75;11.00;;;;;21.80;48.99;100869.22;2388658;28;47363;-90
2022/06/22 00:45:21;;;;;;;;;13.50;10.25;;;;;21.78;48.69;100863.16;2380612;28;45203;-90
2022/06/22 00:46:32;;;;;;;;;12.50;11.25;;;;;21.79;48.70;100870.19;2379353;28;46979;-93
2022/06/22 00:47:59;;;;;;;;;10.25;10.25;;;;;21.77;48.77;100870.31;2382360;28;45204;-93
2022/06/22 00:49:18;;;;;;;;;10.75;10.00;;;;;21.76;49.00;100873.09;2388812;28;45634;-94
2022/06/22 00:50:36;;;;;;;;;13.00;10.50;;;;;21.73;48.94;100866.16;2386024;28;44569;-92
2022/06/22 00:51:46;;;;;;;;;12.00;11.25;;;;;21.73;48.72;100876.03;2392669;28;46360;-93
2022/06/22 00:53:11;;;;;;;;;12.00;10.00;;;;;21.71;48.95;100870.78;2386592;28;44696;-92
2022/06/22 00:54:27;;;;;;;;;13.00;13.00;;;;;21.72;49.12;100877.84;2383297;28;47487;-94
2022/06/22 00:56:06;;;;;;;;;12.25;11.00;;;;;21.72;49.03;100872.50;2386184;28;44683;-94
2022/06/22 00:57:25;;;;;;;;;11.50;11.25;;;;;21.73;49.27;100868.84;2386177;28;46970;-93
2022/06/22 00:58:46;;;;;;;;;12.00;11.25;;;;;21.76;49.29;100871.28;2387098;28;45418;-92
2022/06/22 01:00:13;;;;;;;;;14.75;11.25;;;;;21.79;49.53;100879.06;2392734;28;47281;-92
2022/06/22 01:01:30;;;;;;;;;11.00;10.00;;;;;21.83;49.33;100873.47;2380178;28;45333;-93
2022/06/22 01:02:48;;;;;;;;;12.00;11.00;;;;;21.84;49.31;100880.53;2383386;28;46492;-94
2022/06/22 01:04:08;;;;;;;;;12.50;10.75;;;;;21.83;48.89;100873.47;2380444;28;45192;-93
2022/06/22 01:05:35;;;;;;;;;16.75;12.75;;;;;21.85;48.94;100871.53;2386177;28;47221;-91
2022/06/22 01:06:53;;;;;;;;;10.00;10.00;;;;;21.81;48.96;100874.44;2383539;28;45224;-92
2022/06/22 01:08:24;;;;;;;;;16.25;14.25;;;;;21.80;48.87;100874.56;2372380;28;47366;-92
2022/06/22 01:09:41;;;;;;;;;14.50;11.75;;;;;21.77;49.22;100870.31;2376592;28;45239;-93
2022/06/22 01:11:02;;;;;;;;;12.50;10.25;;;;;21.75;48.92;100871.41;2368557;28;47344;-93
2022/06/22 01:12:51;;;;;;;;;13.25;11.50;;;;;21.72;49.35;100877.84;2373490;28;45237;-94
2022/06/22 01:14:11;;;;;;;;;13.25;10.00;;;;;21.71;49.06;100873.47;2373631;28;46290;-92
2022/06/22 01:15:24;;;;;;;;;15.00;14.25;;;;;21.70;49.34;100874.44;2394487;28;45243;-92
2022/06/22 01:16:39;;;;;;;;;13.75;13.75;;;;;21.69;49.33;100878.94;2394228;28;47612;-93
2022/06/22 01:18:21;;;;;;;;;13.25;10.00;;;;;21.69;49.27;100892.31;2390620;28;45271;-91
2022/06/22 01:19:50;;;;;;;;;16.25;12.25;;;;;21.66;49.13;100895.22;2376477;28;47485;-90
2022/06/22 01:21:23;;;;;;;;;13.25;13.25;;;;;21.62;49.24;100888.41;2389871;28;45275;-91
2022/06/22 01:22:42;;;;;;;;;11.75;10.00;;;;;21.62;49.34;100895.59;2380857;28;47127;-91
2022/06/22 01:24:33;;;;;;;;;13.25;12.75;;;;;21.61;49.60;100891.22;2387999;28;45235;-91
2022/06/22 01:26:03;;;;;;;;;12.25;11.25;;;;;21.59;49.35;100883.31;2373716;28;45435;-92
2022/06/22 01:27:36;;;;;;;;;14.00;11.25;;;;;21.62;49.30;100877.72;2375864;28;45358;-91
2022/06/22 01:29:00;;;;;;;;;13.25;13.25;;;;;21.62;49.42;100861.69;2381184;28;48143;-94
2022/06/22 01:30:28;;;;;;;;;13.25;11.75;;;;;21.62;49.61;100867.03;2385239;28;45287;-95
2022/06/22 01:31:46;;;;;;;;;15.00;13.00;;;;;21.59;49.21;100868.13;2402857;28;48254;-91
2022/06/22 01:32:57;;;;;;;;;14.00;13.50;;;;;21.57;49.66;100870.06;2376862;28;45261;-94
2022/06/22 01:34:14;;;;;;;;;11.25;10.25;;;;;21.57;49.81;100875.41;2375751;28;48035;-94
2022/06/22 01:35:30;;;;;;;;;9.25;9.00;;;;;21.58;49.90;100877.09;2383509;28;45519;-90
2022/06/22 01:36:41;;;;;;;;;16.00;13.50;;;;;21.58;49.97;100874.41;2390728;28;46274;-89
2022/06/22 01:37:51;;;;;;;;;14.00;12.00;;;;;21.59;49.68;100880.63;2394245;28;44635;-92
2022/06/22 01:39:02;;;;;;;;;12.50;11.00;;;;;21.57;49.85;100885.25;2391152;28;47474;-92
2022/06/22 01:40:14;;;;;;;;;14.00;13.00;;;;;21.59;49.89;100894.00;2378250;28;45304;-92
2022/06/22 01:41:40;;;;;;;;;14.00;12.75;;;;;21.57;49.72;100896.81;2387464;28;47216;-92
2022/06/22 01:43:00;;;;;;;;;12.25;11.50;;;;;21.58;49.77;100900.34;2394136;28;45240;-90
2022/06/22 01:44:19;;;;;;;;;12.25;10.25;;;;;21.58;49.82;100901.16;2384191;28;48578;-94
2022/06/22 01:45:38;;;;;;;;;13.00;12.50;;;;;21.59;50.13;100892.19;2390773;28;45250;-93
2022/06/22 01:47:09;;;;;;;;;13.50;12.50;;;;;21.62;49.40;100892.91;2386383;28;47547;-90
2022/06/22 01:48:38;;;;;;;;;10.25;10.25;;;;;21.63;50.07;100890.09;2381414;28;45241;-93
2022/06/22 01:50:13;;;;;;;;;11.75;11.75;;;;;21.67;50.27;100888.06;2377140;28;47263;-92
2022/06/22 01:51:35;;;;;;;;;11.00;10.25;;;;;21.68;50.44;100892.44;2390320;28;45501;-91
2022/06/22 01:53:03;;;;;;;;;9.00;9.00;;;;;21.70;50.00;100894.00;2384539;28;48111;-89
2022/06/22 01:54:25;;;;;;;;;13.50;13.25;;;;;21.72;49.88;100899.25;2390255;28;45421;-95
2022/06/22 01:55:40;;;;;;;;;11.25;11.00;;;;;21.73;49.81;100898.25;2389807;28;48343;-93
2022/06/22 01:57:00;;;;;;;;;13.75;13.00;;;;;21.70;49.49;100904.69;2385279;28;45202;-96
2022/06/22 01:58:19;;;;;;;;;12.00;11.00;;;;;21.68;49.39;100903.16;2375624;28;47316;-93
2022/06/22 01:59:49;;;;;;;;;9.00;6.75;;;;;21.66;50.18;100913.94;2386361;28;45386;-90
2022/06/22 02:01:10;;;;;;;;;12.75;10.25;;;;;21.66;50.52;100903.25;2388933;28;45451;-89
2022/06/22 02:02:32;;;;;;;;;11.75;11.75;;;;;21.67;50.36;100904.09;2385263;28;45255;-89
2022/06/22 02:03:50;;;;;;;;;14.50;14.25;;;;;21.67;50.17;100904.97;2393674;28;47329;-88
2022/06/22 02:05:25;;;;;;;;;12.75;11.25;;;;;21.70;50.73;100902.03;2390598;28;45274;-91
2022/06/22 02:08:41;;;;;;;;;13.25;11.25;;;;;21.68;49.75;100901.28;2375529;28;45220;-95
2022/06/22 02:09:59;;;;;;;;;14.25;13.00;;;;;21.65;49.44;100895.34;2375426;28;47178;-96
2022/06/22 02:11:20;;;;;;;;;14.50;12.50;;;;;21.58;50.19;100898.50;2380502;28;45177;-94
2022/06/22 02:12:37;;;;;;;;;12.00;11.00;;;;;21.51;49.50;100894.59;2378192;28;47713;-94
2022/06/22 02:13:56;;;;;;;;;13.50;12.00;;;;;21.49;49.82;100893.88;2385160;28;45210;-95
2022/06/22 02:15:39;;;;;;;;;12.75;12.00;;;;;21.46;49.74;100894.94;2397764;28;47059;-94
2022/06/22 02:16:58;;;;;;;;;12.50;12.50;;;;;21.47;50.07;100898.47;2378446;28;44672;-94
2022/06/22 02:18:14;;;;;;;;;14.25;12.75;;;;;21.42;50.28;100890.81;2384876;28;45299;-96
2022/06/22 02:19:28;;;;;;;;;17.00;14.50;;;;;21.37;50.23;100890.31;2386547;28;44767;-90
2022/06/22 02:20:40;;;;;;;;;18.00;14.50;;;;;21.35;50.48;100887.78;2383889;28;45551;-93
2022/06/22 02:21:58;;;;;;;;;14.50;11.75;;;;;21.33;50.10;100888.84;2384553;28;45215;-93
2022/06/22 02:23:28;;;;;;;;;19.00;14.50;;;;;21.30;50.69;100884.59;2388071;28;46953;-93
2022/06/22 02:24:45;;;;;;;;;16.75;16.00;;;;;21.26;50.58;100883.13;2385705;28;45269;-92
2022/06/22 02:26:15;;;;;;;;;11.75;11.00;;;;;21.26;50.75;100891.13;2387833;28;46997;-91
2022/06/22 02:27:29;;;;;;;;;17.00;14.00;;;;;21.25;50.58;100889.44;2375447;28;44774;-94
2022/06/22 02:28:41;;;;;;;;;11.50;10.75;;;;;21.24;50.50;100885.91;2384307;28;47638;-94
2022/06/22 02:29:56;;;;;;;;;14.00;12.25;;;;;21.23;50.58;100880.69;2392615;28;45317;-93
2022/06/22 02:31:08;;;;;;;;;16.75;14.50;;;;;21.23;50.42;100878.88;2390467;28;46951;-93
2022/06/22 02:32:27;;;;;;;;;12.75;12.75;;;;;21.26;50.19;100883.13;2377477;28;44573;-92
2022/06/22 02:33:43;;;;;;;;;14.75;14.25;;;;;21.26;50.66;100883.13;2382048;28;48088;-92
2022/06/22 02:34:55;;;;;;;;;16.50;16.50;;;;;21.27;50.42;100878.63;2397057;28;44680;-92
2022/06/22 02:36:07;;;;;;;;;15.00;14.50;;;;;21.26;50.61;100883.13;2391794;28;47088;-92
2022/06/22 02:37:19;;;;;;;;;12.50;12.50;;;;;21.27;50.46;100883.97;2391275;28;44756;-91
2022/06/22 02:38:29;;;;;;;;;14.00;13.75;;;;;21.29;51.01;100876.69;2385165;28;47302;-93
2022/06/22 02:39:45;;;;;;;;;15.50;14.75;;;;;21.28;50.51;100881.19;2377796;28;45281;-92
2022/06/22 02:45:28;;;;;;;;;15.00;12.50;;;;;21.27;50.79;100870.59;2385290;28;45160;-96
2022/06/22 02:46:42;;;;;;;;;17.00;14.50;;;;;21.27;51.02;100874.13;2393903;28;47484;-93
2022/06/22 02:48:18;;;;;;;;;14.00;11.25;;;;;21.26;50.69;100869.75;2389541;28;45270;-94
2022/06/22 02:49:37;;;;;;;;;18.25;17.25;;;;;21.24;50.82;100861.00;2393888;28;47382;-95
2022/06/22 02:51:09;;;;;;;;;13.75;13.50;;;;;21.21;50.95;100851.41;2384523;28;45442;-94
2022/06/22 02:52:24;;;;;;;;;13.75;12.50;;;;;21.22;50.67;100849.59;2380576;28;47488;-95
2022/06/22 02:53:37;;;;;;;;;15.50;15.50;;;;;21.23;50.61;100851.28;2384430;28;45269;-96
2022/06/22 02:54:52;;;;;;;;;16.00;13.75;;;;;21.21;50.45;100858.59;2377826;28;48100;-96
2022/06/22 02:56:05;;;;;;;;;13.25;11.00;;;;;21.24;50.53;100852.97;2391383;28;44663;-94
2022/06/22 02:57:37;;;;;;;;;13.50;12.00;;;;;21.27;50.58;100855.44;2377930;28;46598;-94
2022/06/22 02:58:49;;;;;;;;;17.25;15.25;;;;;21.25;50.67;100852.03;2377492;28;45259;-96
2022/06/22 03:00:00;;;;;;;;;15.25;13.25;;;;;21.27;50.90;100844.72;2387308;28;45212;-96
2022/06/22 03:01:14;;;;;;;;;15.50;13.75;;;;;21.27;50.25;100843.88;2395550;28;44707;-96
2022/06/22 03:02:26;;;;;;;;;15.75;13.00;;;;;21.26;50.74;100840.34;2387014;28;48244;-95
2022/06/22 03:03:37;;;;;;;;;10.75;10.00;;;;;21.27;50.70;100831.38;2384759;28;45322;-93
2022/06/22 03:04:48;;;;;;;;;18.25;15.00;;;;;21.27;50.43;100830.50;2387083;28;48279;-95
2022/06/22 03:05:59;;;;;;;;;10.75;10.00;;;;;21.23;50.68;100828.09;2385295;28;44739;-90
2022/06/22 03:07:09;;;;;;;;;12.50;12.00;;;;;21.21;50.92;100818.50;2384062;28;47673;-91
2022/06/22 03:08:20;;;;;;;;;14.75;13.75;;;;;21.19;50.58;100817.75;2390395;28;45485;-92
2022/06/22 03:09:30;;;;;;;;;12.75;11.50;;;;;21.14;50.95;100810.94;2368392;28;48178;-91
2022/06/22 03:10:49;;;;;;;;;11.25;10.75;;;;;21.16;50.59;100818.00;2380102;28;45284;-90
2022/06/22 03:12:01;;;;;;;;;15.75;14.50;;;;;21.15;50.98;100814.47;2389758;28;46250;-87
2022/06/22 03:13:15;;;;;;;;;15.75;14.75;;;;;21.13;50.63;100816.41;2393343;28;45255;-87
2022/06/22 03:14:37;;;;;;;;;16.25;14.00;;;;;21.15;50.93;100822.47;2383827;28;47274;-87
2022/06/22 03:15:48;;;;;;;;;15.50;13.25;;;;;21.17;51.13;100825.88;2383295;28;45375;-87
2022/06/22 03:17:05;;;;;;;;;17.25;15.00;;;;;21.19;51.08;100823.09;2383413;28;45603;-88
2022/06/22 03:18:23;;;;;;;;;13.25;13.25;;;;;21.21;51.39;100826.50;2374580;28;44751;-88
2022/06/22 03:19:45;;;;;;;;;15.50;12.50;;;;;21.24;51.45;100834.28;2376321;28;46642;-88
2022/06/22 03:21:01;;;;;;;;;15.00;14.50;;;;;21.27;51.13;100828.69;2383479;28;45362;-88
2022/06/22 03:22:43;;;;;;;;;13.75;12.00;;;;;21.31;51.71;100829.31;2384465;28;46606;-88
2022/06/22 03:24:12;;;;;;;;;14.50;13.50;;;;;21.33;51.63;100822.03;2373695;28;45474;-89
2022/06/22 03:25:35;;;;;;;;;15.00;13.25;;;;;21.32;51.00;100807.81;2383160;28;45353;-88
2022/06/22 03:26:51;;;;;;;;;12.50;12.00;;;;;21.34;51.74;100816.56;2392864;28;44786;-87
2022/06/22 03:28:08;;;;;;;;;15.25;15.25;;;;;21.36;51.41;100814.63;2389293;28;45465;-87
2022/06/22 03:29:24;;;;;;;;;12.75;12.75;;;;;21.38;50.75;100808.31;2384620;28;45230;-87
2022/06/22 03:30:54;;;;;;;;;15.75;15.75;;;;;21.37;50.40;100810.13;2383800;28;48218;-88
2022/06/22 03:32:15;;;;;;;;;13.25;12.75;;;;;21.33;50.70;100804.19;2388216;28;45339;-87
2022/06/22 03:33:32;;;;;;;;;16.50;15.00;;;;;21.33;50.70;100806.00;2386057;28;46156;-89
2022/06/22 03:34:48;;;;;;;;;15.00;13.75;;;;;21.32;50.87;100804.28;2379617;28;44565;-88
2022/06/22 03:36:21;;;;;;;;;11.25;11.25;;;;;21.30;50.70;100806.22;2381139;28;45694;-89
2022/06/22 03:37:37;;;;;;;;;13.25;13.25;;;;;21.29;50.64;100801.84;2384030;28;45149;-89
2022/06/22 03:38:54;;;;;;;;;15.75;13.25;;;;;21.29;50.79;100809.84;2384427;28;45458;-87
2022/06/22 03:40:13;;;;;;;;;16.00;14.50;;;;;21.28;50.82;100808.19;2384389;28;45338;-87
2022/06/22 03:41:30;;;;;;;;;15.75;14.75;;;;;21.26;50.59;100805.59;2383589;28;47227;-87
2022/06/22 03:42:48;;;;;;;;;12.50;12.50;;;;;21.21;51.03;100800.63;2383506;28;44772;-88
2022/06/22 03:44:05;;;;;;;;;7.25;5.50;;;;;21.21;50.92;100805.13;2389426;28;47173;-87
2022/06/22 03:45:23;;;;;;;;;12.25;12.00;;;;;21.21;50.95;100810.47;2383540;28;45311;-92
2022/06/22 03:46:42;;;;;;;;;12.75;12.75;;;;;21.22;50.87;100818.38;2393233;28;47473;-93
2022/06/22 03:47:58;;;;;;;;;15.00;13.75;;;;;21.23;51.10;100817.41;2396451;28;45335;-93
2022/06/22 03:49:23;;;;;;;;;16.25;15.25;;;;;21.24;50.94;100812.88;2390488;28;46611;-93
2022/06/22 03:51:06;;;;;;;;;16.00;15.25;;;;;21.23;50.62;100804.06;2386687;28;45181;-93
2022/06/22 03:52:40;;;;;;;;;14.00;12.50;;;;;21.25;51.08;100803.91;2390371;28;47160;-92
2022/06/22 03:53:53;;;;;;;;;19.25;18.25;;;;;21.28;50.96;100805.50;2387798;28;45269;-90
2022/06/22 03:55:13;;;;;;;;;18.00;14.75;;;;;21.28;50.78;100795.66;2383652;28;45378;-90
2022/06/22 03:56:29;;;;;;;;;19.75;13.75;;;;;21.29;50.93;100794.69;2382899;28;45195;-90
2022/06/22 03:57:43;;;;;;;;;16.25;13.50;;;;;21.31;50.75;100800.75;2386728;28;47053;-90
2022/06/22 03:58:54;;;;;;;;;16.25;15.25;;;;;21.36;51.17;100811.94;2390043;28;44866;-91
2022/06/22 04:00:08;;;;;;;;;14.75;14.75;;;;;21.39;51.13;100812.66;2383866;28;47049;-91
2022/06/22 04:01:20;;;;;;;;;14.75;14.25;;;;;21.40;51.22;100817.91;2388400;28;45552;-91
2022/06/22 04:02:32;;;;;;;;;14.50;12.00;;;;;21.41;51.56;100816.09;2388219;28;47059;-92
2022/06/22 04:03:42;;;;;;;;;14.50;14.00;;;;;21.44;51.65;100815.81;2396105;28;45208;-93
2022/06/22 04:04:55;;;;;;;;;15.75;13.50;;;;;21.46;52.25;100821.91;2395361;28;47417;-95
2022/06/22 04:06:06;;;;;;;;;13.75;13.50;;;;;21.49;51.50;100819.00;2393477;28;45503;-93
2022/06/22 04:07:17;;;;;;;;;15.50;12.75;;;;;21.50;51.15;100820.72;2384142;28;46089;-94
2022/06/22 04:08:31;;;;;;;;;18.00;14.00;;;;;21.52;51.46;100813.41;2393271;28;45461;-90
2022/06/22 04:09:51;;;;;;;;;17.75;15.00;;;;;21.51;50.88;100817.03;2391950;28;48220;-87
2022/06/22 04:11:10;;;;;;;;;17.25;14.50;;;;;21.48;50.62;100820.00;2388964;28;45292;-87
2022/06/22 04:12:27;;;;;;;;;16.00;15.00;;;;;21.45;50.82;100830.91;2383669;28;45285;-87
2022/06/22 04:13:49;;;;;;;;;13.75;13.00;;;;;21.44;50.93;100840.75;2392978;28;45299;-90
2022/06/22 04:15:19;;;;;;;;;14.00;12.25;;;;;21.46;51.03;100851.31;2392940;28;45404;-91
2022/06/22 04:16:38;;;;;;;;;19.00;16.50;;;;;21.46;51.02;100837.94;2375196;28;45215;-92
2022/06/22 04:17:55;;;;;;;;;13.50;13.50;;;;;21.48;50.81;100833.34;2390521;28;47408;-91
2022/06/22 04:19:17;;;;;;;;;18.00;15.50;;;;;21.44;50.47;100832.72;2393864;28;45362;-90
2022/06/22 04:20:51;;;;;;;;;14.50;13.25;;;;;21.40;50.95;100841.97;2394570;28;47735;-94
2022/06/22 04:22:08;;;;;;;;;15.25;13.75;;;;;21.44;51.07;100847.91;2396085;28;44602;-95
2022/06/22 04:23:57;;;;;;;;;19.00;15.75;;;;;21.47;50.98;100834.31;2385854;28;46132;-96
2022/06/22 04:25:36;;;;;;;;;14.25;14.25;;;;;21.44;50.58;100821.19;2381103;28;45687;-90
2022/06/22 04:26:58;;;;;;;;;15.25;12.50;;;;;21.39;51.04;100826.88;2392599;28;47104;-90
2022/06/22 04:28:14;;;;;;;;;16.75;11.75;;;;;21.41;50.64;100837.47;2391740;28;45738;-92
2022/06/22 04:29:29;;;;;;;;;15.25;15.25;;;;;21.42;51.21;100829.34;2392881;28;47171;-85
2022/06/22 04:30:50;;;;;;;;;16.75;14.00;;;;;21.41;50.73;100810.75;2379694;28;46665;-85
2022/06/22 04:32:18;;;;;;;;;15.75;15.75;;;;;21.36;50.50;100811.09;2383988;28;46116;-86
2022/06/22 04:33:43;;;;;;;;;16.75;14.25;;;;;21.34;50.83;100807.69;2383780;28;45411;-91
2022/06/22 04:35:08;;;;;;;;;14.75;14.75;;;;;21.32;50.46;100804.28;2383582;28;45619;-92
2022/06/22 04:36:27;;;;;;;;;20.00;19.50;;;;;21.27;50.61;100803.78;2383341;28;45194;-91
2022/06/22 04:38:08;;;;;;;;;11.25;11.00;;;;;21.21;50.86;100808.63;2385271;28;45428;-93
2022/06/22 04:39:23;;;;;;;;;19.25;15.00;;;;;21.13;50.88;100809.25;2366932;28;45305;-94
2022/06/22 04:40:42;;;;;;;;;16.75;14.00;;;;;21.11;51.32;100818.34;2369905;28;48716;-93
2022/06/22 04:41:53;;;;;;;;;14.50;13.50;;;;;21.10;51.43;100813.97;2375298;28;45286;-92
2022/06/22 04:43:04;;;;;;;;;13.50;13.25;;;;;21.12;51.14;100826.25;2376138;28;47347;-93
2022/06/22 04:44:19;;;;;;;;;18.25;17.00;;;;;21.17;50.90;100833.91;2382788;28;45480;-89
2022/06/22 04:45:37;;;;;;;;;15.00;14.25;;;;;21.16;51.06;100832.22;2382213;28;49309;-88
2022/06/22 04:46:51;;;;;;;;;12.00;12.00;;;;;21.17;51.27;100833.03;2382171;28;44819;-88
2022/06/22 04:48:11;;;;;;;;;17.00;14.00;;;;;21.17;51.58;100820.53;2391857;28;46949;-90
2022/06/22 04:49:31;;;;;;;;;18.50;15.25;;;;;21.18;50.96;100819.59;2389889;28;45345;-85
2022/06/22 04:50:45;;;;;;;;;18.50;16.50;;;;;21.17;51.06;100819.69;2384628;28;45435;-85
2022/06/22 04:52:11;;;;;;;;;18.25;17.50;;;;;21.12;51.01;100822.72;2384547;28;45369;-86
2022/06/22 04:53:35;;;;;;;;;17.25;15.75;;;;;21.06;50.95;100825.88;2384498;28;46446;-86
2022/06/22 04:54:51;;;;;;;;;15.50;14.75;;;;;21.01;51.11;100831.56;2393506;28;45278;-86
2022/06/22 04:56:06;;;;;;;;;16.50;14.25;;;;;20.92;51.12;100825.91;2390135;28;48192;-87
2022/06/22 04:57:39;;;;;;;;;17.75;16.75;;;;;20.90;51.51;100819.00;2378074;28;45266;-86
2022/06/22 04:58:53;;;;;;;;;16.50;14.75;;;;;20.86;51.48;100815.72;2383925;28;46708;-86
2022/06/22 05:00:11;;;;;;;;;16.75;14.50;;;;;20.83;51.67;100813.25;2384957;28;45534;-87
2022/06/22 05:01:28;;;;;;;;;21.00;18.25;;;;;20.76;51.59;100802.19;2384037;28;45585;-87
2022/06/22 05:02:41;;;;;;;;;17.25;17.25;;;;;20.72;51.64;100811.41;2391563;28;45441;-87
2022/06/22 05:04:00;;;;;;;;;15.25;15.25;;;;;20.68;51.78;100796.56;2390019;28;45428;-87
2022/06/22 05:05:17;;;;;;;;;23.00;18.25;;;;;20.65;51.90;100795.00;2383285;28;46104;-87
2022/06/22 05:06:54;;;;;;;;;19.25;18.25;;;;;20.64;52.25;100798.63;2384318;28;45484;-87
2022/06/22 05:08:22;;;;;;;;;16.75;15.25;;;;;20.60;51.67;100802.50;2384822;28;45403;-88
2022/06/22 05:09:40;;;;;;;;;18.50;16.75;;;;;20.60;51.93;100799.81;2383056;28;45485;-86
2022/06/22 05:11:02;;;;;;;;;21.00;17.00;;;;;20.61;52.16;100798.88;2396354;28;45250;-87
2022/06/22 05:12:18;;;;;;;;;14.75;14.50;;;;;20.61;52.18;100792.66;2389268;28;45894;-88
2022/06/22 05:13:34;;;;;;;;;17.00;14.50;;;;;20.61;52.31;100800.69;2385008;28;45208;-86
2022/06/22 05:14:47;;;;;;;;;18.00;17.00;;;;;20.57;52.42;100794.69;2384340;28;45579;-85
2022/06/22 05:15:59;;;;;;;;;13.50;13.25;;;;;20.57;52.39;100802.72;2385642;28;45454;-85
2022/06/22 05:17:27;;;;;;;;;18.50;17.50;;;;;20.56;52.47;100801.03;2385063;28;45491;-85
2022/06/22 05:18:39;;;;;;;;;20.75;18.50;;;;;20.53;52.44;100801.25;2385325;28;45434;-86
2022/06/22 05:19:57;;;;;;;;;19.50;18.50;;;;;20.53;52.55;100802.09;2385253;28;46610;-85
2022/06/22 05:21:37;;;;;;;;;17.50;16.50;;;;;20.49;52.30;100794.44;2384667;28;45158;-85
2022/06/22 05:22:51;;;;;;;;;19.25;15.75;;;;;20.44;53.07;100809.00;2381777;28;46349;-85
2022/06/22 05:24:06;;;;;;;;;16.50;13.75;;;;;20.45;52.79;100805.34;2384883;28;45366;-85
2022/06/22 05:25:18;;;;;;;;;16.50;16.50;;;;;20.45;52.75;100809.81;2384332;28;45460;-85
2022/06/22 05:26:30;;;;;;;;;4.75;3.75;;;;;20.45;52.77;100802.69;2385485;28;45251;-85
2022/06/22 05:28:00;;;;;;;;;17.50;15.50;;;;;20.44;52.69;100803.66;2385567;28;45512;-84
2022/06/22 05:29:40;;;;;;;;;16.00;15.75;;;;;20.43;52.88;100795.75;2393776;28;45258;-85
2022/06/22 05:31:00;;;;;;;;;22.25;16.50;;;;;20.42;52.73;100789.53;2375592;28;46305;-86
2022/06/22 05:32:28;;;;;;;;;20.00;17.25;;;;;20.45;52.46;100785.81;2384395;28;44713;-86
2022/06/22 05:33:43;;;;;;;;;16.25;15.00;;;;;20.48;52.64;100790.06;2386876;28;46324;-86
2022/06/22 05:34:55;;;;;;;;;15.50;15.50;;;;;20.46;53.08;100783.03;2384577;28;45276;-87
2022/06/22 05:36:10;;;;;;;;;16.50;16.50;;;;;20.48;52.42;100792.72;2384278;28;45705;-85
2022/06/22 05:37:20;;;;;;;;;20.25;15.75;;;;;20.50;52.46;100794.31;2382627;28;45351;-86
2022/06/22 05:38:35;;;;;;;;;21.25;21.25;;;;;20.49;52.60;100787.28;2382924;28;45305;-86
2022/06/22 05:39:46;;;;;;;;;24.75;18.50;;;;;20.49;52.56;100783.75;2384383;28;45386;-86
2022/06/22 05:40:57;;;;;;;;;18.00;17.25;;;;;20.51;52.72;100797.84;2384733;28;47161;-86
2022/06/22 05:42:10;;;;;;;;;18.00;17.50;;;;;20.52;52.43;100802.22;2384039;28;45325;-86
2022/06/22 05:43:22;;;;;;;;;17.25;17.25;;;;;20.51;52.53;100798.72;2384576;28;45322;-85
2022/06/22 05:44:33;;;;;;;;;16.00;16.00;;;;;20.51;52.28;100793.38;2384691;28;45232;-86
2022/06/22 05:45:46;;;;;;;;;16.75;13.75;;;;;20.52;52.65;100799.56;2384407;28;45422;-86
2022/06/22 05:47:00;;;;;;;;;15.50;14.75;;;;;20.53;52.78;100802.09;2384655;28;44795;-85
2022/06/22 05:48:17;;;;;;;;;16.25;13.50;;;;;20.54;52.69;100797.63;2384237;28;45415;-85
2022/06/22 05:49:35;;;;;;;;;20.50;19.00;;;;;20.55;52.61;100804.66;2383445;28;45373;-86
2022/06/22 05:50:52;;;;;;;;;17.75;16.50;;;;;20.53;52.24;100795.91;2392933;28;46249;-86
2022/06/22 05:52:13;;;;;;;;;19.75;17.25;;;;;20.52;52.40;100795.06;2389677;28;45193;-86
2022/06/22 05:53:42;;;;;;;;;19.00;17.25;;;;;20.55;52.32;100793.97;2383817;28;46640;-87
2022/06/22 05:54:58;;;;;;;;;18.75;17.00;;;;;20.55;52.92;100793.97;2382771;28;45418;-86
2022/06/22 05:56:19;;;;;;;;;19.50;18.00;;;;;20.56;52.35;100791.22;2380484;28;46156;-86
2022/06/22 05:57:50;;;;;;;;;14.75;14.75;;;;;20.57;52.29;100794.69;2387903;28;45495;-86
2022/06/22 05:59:18;;;;;;;;;18.75;18.25;;;;;20.58;52.28;100799.09;2385784;28;48005;-85
2022/06/22 06:00:44;;;;;;;;;21.00;18.75;;;;;20.53;52.34;100796.78;2392187;28;45304;-89
2022/06/22 06:02:13;;;;;;;;;20.00;16.50;;;;;20.49;52.32;100797.13;2388591;28;45518;-86
2022/06/22 06:03:39;;;;;;;;;17.75;17.75;;;;;20.43;52.60;100793.94;2384562;28;45504;-85
2022/06/22 06:04:53;;;;;;;;;19.75;17.50;;;;;20.42;52.65;100789.53;2382676;28;45439;-83
2022/06/22 06:06:26;;;;;;;;;24.00;17.50;;;;;20.39;52.73;100784.47;2384916;28;45196;-82
2022/06/22 06:07:50;;;;;;;;;20.00;16.25;;;;;20.37;52.65;100786.41;2383336;28;45407;-83
2022/06/22 06:09:04;;;;;;;;;24.25;20.00;;;;;20.37;52.69;100789.06;2382284;28;45508;-83
2022/06/22 06:10:25;;;;;;;;;26.00;19.75;;;;;20.38;52.59;100782.75;2375694;28;46292;-83